Time;durP1;ratioP1;P1;durP2;ratioP2;P2;SDS_P1;SDS_P2;PMS_P1;PMS_P2;Temp;Humidity;BMP_temperature;BMP_pressure;BME280_temperature;BME280_humidity;BME280_pressure;Samples;Min_cycle;Max_cycle;Signal;HPM_P1;HPM_P2
2023/06/29 00:02:24;;;;;;;5.97;3.10;;;;;;;17.77;56.32;95755.53;4939888;28;20685;-81
2023/06/29 00:04:50;;;;;;;5.90;3.13;;;;;;;17.71;56.81;95750.22;4964227;28;20694;-81
2023/06/29 00:07:15;;;;;;;5.55;3.17;;;;;;;17.72;56.71;95755.28;4965182;28;20181;-81
2023/06/29 00:09:41;;;;;;;5.25;3.28;;;;;;;17.67;56.78;95749.75;4930574;28;20192;-81
2023/06/29 00:12:06;;;;;;;6.45;3.60;;;;;;;17.65;57.15;95749.09;4967754;28;20220;-81
2023/06/29 00:14:32;;;;;;;3.92;2.95;;;;;;;17.62;57.17;95752.09;4958726;28;20325;-81
2023/06/29 00:16:57;;;;;;;6.15;3.10;;;;;;;17.63;57.45;95752.91;4995242;28;20319;-81
2023/06/29 00:19:22;;;;;;;4.45;2.72;;;;;;;17.61;57.26;95752.31;4969684;28;20188;-81
2023/06/29 00:21:48;;;;;;;6.45;3.45;;;;;;;17.53;58.38;95746.16;4994072;28;20193;-81
2023/06/29 00:24:14;;;;;;;7.22;3.75;;;;;;;17.52;57.77;95747.16;4972496;28;20208;-81
2023/06/29 00:26:39;;;;;;;9.85;3.40;;;;;;;17.53;57.38;95747.97;4957132;28;20188;-81
2023/06/29 00:29:05;;;;;;;6.28;3.20;;;;;;;17.51;57.54;95740.28;4959715;28;20226;-81
2023/06/29 00:31:31;;;;;;;4.25;3.00;;;;;;;17.50;57.76;95738.66;4965293;28;20188;-81
2023/06/29 00:33:56;;;;;;;5.85;3.00;;;;;;;17.47;57.92;95741.63;4958295;28;20219;-81
2023/06/29 00:36:21;;;;;;;4.93;3.10;;;;;;;17.47;57.84;95732.94;4971682;28;20181;-81
2023/06/29 00:38:46;;;;;;;4.93;3.42;;;;;;;17.41;58.32;95733.72;4966204;28;20218;-81
2023/06/29 00:41:12;;;;;;;3.70;2.90;;;;;;;17.39;58.41;95730.44;4960285;28;20236;-81
2023/06/29 00:43:37;;;;;;;5.00;2.90;;;;;;;17.35;58.34;95724.75;4968851;28;20673;-81
2023/06/29 00:46:07;;;;;;;4.38;3.47;;;;;;;17.38;58.03;95723.56;4963807;28;20177;-81
2023/06/29 00:48:34;;;;;;;7.43;3.33;;;;;;;17.39;58.17;95722.56;4969713;28;20197;-80
2023/06/29 00:51:00;;;;;;;4.15;3.00;;;;;;;17.36;58.20;95729.00;4965135;28;20177;-81
2023/06/29 00:53:25;;;;;;;3.60;3.08;;;;;;;17.33;58.15;95713.63;4973090;28;20185;-80
2023/06/29 00:55:50;;;;;;;4.50;2.60;;;;;;;17.31;58.63;95722.66;4966998;28;20228;-80
2023/06/29 00:58:16;;;;;;;5.40;2.78;;;;;;;17.28;58.64;95721.25;4961888;28;20181;-80
2023/06/29 01:00:41;;;;;;;4.50;3.42;;;;;;;17.27;58.58;95717.81;4967584;28;20239;-80
2023/06/29 01:03:09;;;;;;;5.32;3.08;;;;;;;17.27;58.32;95715.19;4952315;28;20736;-80
2023/06/29 01:05:34;;;;;;;5.50;3.50;;;;;;;17.21;58.87;95715.09;4958417;28;20582;-81
2023/06/29 01:08:09;;;;;;;4.80;3.03;;;;;;;17.20;58.98;95718.72;4963205;28;20271;-81
2023/06/29 01:10:35;;;;;;;3.67;2.90;;;;;;;17.22;59.07;95717.53;4972278;28;20172;-81
2023/06/29 01:13:01;;;;;;;8.27;3.72;;;;;;;17.20;58.95;95719.53;4956288;28;20248;-81
2023/06/29 01:15:27;;;;;;;8.70;3.38;;;;;;;17.18;58.98;95705.78;4950375;28;20303;-81
2023/06/29 01:17:55;;;;;;;5.97;3.40;;;;;;;17.18;59.05;95708.41;4951985;28;20701;-81
2023/06/29 01:20:20;;;;;;;5.82;2.78;;;;;;;17.16;59.24;95707.78;4957003;28;20316;-81
2023/06/29 01:23:07;;;;;;;5.07;3.33;;;;;;;17.17;59.26;95709.41;4952534;28;20274;-80
2023/06/29 01:25:36;;;;;;;5.35;3.25;;;;;;;17.15;59.11;95702.72;4957984;28;20291;-81
2023/06/29 01:28:05;;;;;;;5.80;3.65;;;;;;;17.11;59.83;95702.28;4966352;28;20196;-81
2023/06/29 01:30:31;;;;;;;4.05;3.33;;;;;;;17.05;60.33;95694.31;4954669;28;20259;-81
2023/06/29 01:32:56;;;;;;;6.15;3.45;;;;;;;17.02;59.80;95694.69;4964037;28;20667;-81
2023/06/29 01:35:22;;;;;;;5.22;3.10;;;;;;;17.01;59.99;95698.31;4969555;28;20287;-81
2023/06/29 01:37:58;;;;;;;4.57;3.20;;;;;;;17.04;59.54;95690.06;4973938;28;20633;-81
2023/06/29 01:40:26;;;;;;;4.90;3.22;;;;;;;16.99;60.09;95688.81;4970170;28;20205;-81
2023/06/29 01:42:53;;;;;;;4.45;3.10;;;;;;;16.99;59.99;95688.00;4965338;28;20193;-81
2023/06/29 01:45:20;;;;;;;5.63;2.92;;;;;;;16.98;60.29;95684.56;4942400;28;20220;-81
2023/06/29 01:47:45;;;;;;;4.80;2.92;;;;;;;16.94;60.78;95680.69;4950642;28;20195;-81
2023/06/29 01:50:11;;;;;;;5.53;3.17;;;;;;;16.91;60.46;95675.00;4972043;28;20180;-81
2023/06/29 01:52:37;;;;;;;3.53;3.08;;;;;;;16.89;60.63;95684.88;4948373;28;20246;-81
2023/06/29 01:55:02;;;;;;;4.55;3.10;;;;;;;16.90;60.47;95668.94;4951517;28;20204;-80
2023/06/29 01:57:28;;;;;;;3.05;2.80;;;;;;;16.95;60.19;95678.88;4957298;28;20320;-80
2023/06/29 01:59:53;;;;;;;4.97;3.28;;;;;;;16.89;60.15;95675.19;4966789;28;20247;-81
2023/06/29 02:02:19;;;;;;;5.70;3.25;;;;;;;16.87;60.52;95677.19;4951473;28;20190;-81
2023/06/29 02:04:44;;;;;;;6.45;3.28;;;;;;;16.85;60.77;95662.59;4959558;28;20272;-82
2023/06/29 02:07:09;;;;;;;4.53;3.75;;;;;;;16.88;60.33;95668.31;4964932;28;20679;-82
2023/06/29 02:09:35;;;;;;;4.72;3.88;;;;;;;16.88;60.22;95664.88;4941876;28;20244;-81
2023/06/29 02:12:00;;;;;;;5.13;3.40;;;;;;;16.88;60.41;95667.50;4969906;28;20185;-82
2023/06/29 02:14:28;;;;;;;4.38;3.15;;;;;;;16.91;60.12;95669.75;4966534;28;20291;-81
2023/06/29 02:16:54;;;;;;;6.85;3.45;;;;;;;16.92;59.95;95666.13;4957237;28;20355;-81
2023/06/29 02:19:19;;;;;;;5.82;3.40;;;;;;;16.91;60.13;95667.94;4966789;28;20188;-82
2023/06/29 02:21:44;;;;;;;5.22;3.45;;;;;;;16.90;60.28;95665.50;4971144;28;20603;-81
2023/06/29 02:24:10;;;;;;;4.95;3.60;;;;;;;16.88;59.96;95663.06;4963178;28;20706;-81
2023/06/29 02:26:35;;;;;;;6.38;3.78;;;;;;;16.85;60.35;95666.03;4966957;28;20659;-81
2023/06/29 02:29:00;;;;;;;7.38;3.63;;;;;;;16.83;60.22;95652.31;4972096;28;20201;-81
2023/06/29 02:31:26;;;;;;;5.43;3.30;;;;;;;16.86;60.16;95666.84;4967290;28;20201;-81
2023/06/29 02:33:51;;;;;;;5.22;3.08;;;;;;;16.83;60.19;95662.78;4971288;28;20208;-81
2023/06/29 02:36:20;;;;;;;7.55;3.13;;;;;;;16.80;60.36;95665.78;4971817;28;20189;-81
2023/06/29 02:38:46;;;;;;;4.75;3.53;;;;;;;16.80;60.96;95657.13;4948141;28;20255;-80
2023/06/29 02:41:12;;;;;;;5.25;3.63;;;;;;;16.74;61.00;95657.84;4957784;28;20205;-81
2023/06/29 02:43:37;;;;;;;5.32;4.00;;;;;;;16.74;61.22;95657.84;4969319;28;20181;-81
2023/06/29 02:46:02;;;;;;;7.68;3.90;;;;;;;16.72;61.02;95658.03;4961267;28;20189;-81
2023/06/29 02:48:27;;;;;;;4.80;3.53;;;;;;;16.70;60.88;95655.59;4961014;28;20188;-80
2023/06/29 02:50:53;;;;;;;5.32;3.60;;;;;;;16.71;60.93;95659.03;4964688;28;20188;-81
2023/06/29 02:53:18;;;;;;;6.28;3.40;;;;;;;16.70;61.08;95660.84;4971567;28;20190;-81
2023/06/29 02:55:43;;;;;;;6.85;4.00;;;;;;;16.65;61.21;95649.22;4958396;28;20212;-80
2023/06/29 02:58:09;;;;;;;6.40;3.45;;;;;;;16.66;61.23;95650.84;4965251;28;20180;-81
2023/06/29 03:00:34;;;;;;;4.75;3.58;;;;;;;16.60;61.29;95652.38;4951231;28;20213;-82
2023/06/29 03:03:00;;;;;;;4.22;3.47;;;;;;;16.64;61.22;95651.03;4959583;28;20992;-82
2023/06/29 03:05:25;;;;;;;5.45;3.78;;;;;;;16.63;61.36;95656.47;4966682;28;20205;-82
2023/06/29 03:07:50;;;;;;;6.13;3.85;;;;;;;16.56;62.02;95650.31;4939238;28;20196;-81
2023/06/29 03:10:16;;;;;;;5.50;3.60;;;;;;;16.65;61.70;95649.22;4963564;28;20181;-81
2023/06/29 03:12:41;;;;;;;4.88;3.70;;;;;;;16.64;61.51;95655.47;4960173;28;20189;-81
2023/06/29 03:15:07;;;;;;;5.65;3.40;;;;;;;16.64;61.74;95647.59;4964795;28;20328;-81
2023/06/29 03:17:32;;;;;;;6.15;3.40;;;;;;;16.65;61.61;95654.47;4949548;28;21175;-82
2023/06/29 03:19:57;;;;;;;4.97;3.42;;;;;;;16.62;61.92;95649.59;4971381;28;20209;-81
2023/06/29 03:22:25;;;;;;;4.30;3.30;;;;;;;16.62;61.64;95649.59;4967290;28;20279;-82
2023/06/29 03:24:50;;;;;;;5.43;3.28;;;;;;;16.63;61.50;95645.97;4947105;28;20213;-81
2023/06/29 03:27:15;;;;;;;6.80;3.42;;;;;;;16.74;61.38;95642.09;4955956;28;20185;-81
2023/06/29 03:29:41;;;;;;;7.97;3.45;;;;;;;16.66;61.47;95646.41;4946963;28;20187;-81
2023/06/29 03:32:06;;;;;;;5.82;3.58;;;;;;;16.68;61.48;95638.34;4970443;28;20610;-81
2023/06/29 03:34:31;;;;;;;6.97;3.88;;;;;;;16.72;61.43;95638.84;4950935;28;20184;-81
2023/06/29 03:36:57;;;;;;;6.03;3.33;;;;;;;16.80;60.94;95639.56;4962916;28;20225;-81
2023/06/29 03:39:22;;;;;;;6.32;3.60;;;;;;;16.84;60.84;95637.38;4939857;28;20267;-81
2023/06/29 03:41:47;;;;;;;4.22;3.17;;;;;;;16.97;60.36;95634.91;4960488;28;20250;-81
2023/06/29 03:44:13;;;;;;;7.20;3.80;;;;;;;17.11;59.88;95634.06;4967347;28;20209;-81
2023/06/29 03:46:38;;;;;;;2.72;2.50;;;;;;;17.49;59.44;95641.69;4940161;28;20180;-81
2023/06/29 03:49:04;;;;;;;4.60;3.35;;;;;;;18.05;57.14;95632.09;4963623;28;20188;-80
2023/06/29 03:51:29;;;;;;;3.88;2.92;;;;;;;18.95;54.98;95630.34;4960097;28;20582;-81
2023/06/29 03:53:54;;;;;;;5.38;3.33;;;;;;;19.72;50.88;95629.94;4965113;28;20308;-82
2023/06/29 03:56:20;;;;;;;7.57;3.03;;;;;;;20.73;49.47;95628.78;4971377;28;20422;-82
2023/06/29 03:58:45;;;;;;;4.97;2.63;;;;;;;21.85;45.94;95624.72;4975351;28;20189;-81
2023/06/29 04:01:10;;;;;;;3.63;2.67;;;;;;;22.50;44.83;95627.78;4968557;28;20220;-81
2023/06/29 04:03:35;;;;;;;4.38;2.95;;;;;;;22.84;43.00;95629.88;4961838;28;21060;-83
2023/06/29 04:06:01;;;;;;;4.70;3.03;;;;;;;23.10;41.93;95633.22;4966718;28;20188;-82
2023/06/29 04:08:27;;;;;;;3.58;3.00;;;;;;;23.56;40.88;95632.59;4967284;28;20215;-82
2023/06/29 04:10:53;;;;;;;4.00;2.63;;;;;;;23.76;39.90;95634.97;4960025;28;20188;-82
2023/06/29 04:13:18;;;;;;;4.93;2.67;;;;;;;24.05;39.93;95640.44;4961623;28;20180;-82
2023/06/29 04:15:43;;;;;;;4.78;2.70;;;;;;;24.25;39.11;95640.91;4970833;28;20607;-82
2023/06/29 04:18:09;;;;;;;8.43;2.83;;;;;;;24.77;38.31;95641.00;4959046;28;20192;-84
2023/06/29 04:20:35;;;;;;;3.35;2.70;;;;;;;24.86;37.56;95637.75;4967320;28;20204;-83
2023/06/29 04:23:01;;;;;;;3.45;2.65;;;;;;;25.37;36.55;95635.31;4965184;28;20204;-84
2023/06/29 04:25:26;;;;;;;5.05;2.60;;;;;;;25.61;36.29;95630.66;4941680;28;20201;-82
2023/06/29 04:27:51;;;;;;;6.00;2.40;;;;;;;25.99;35.30;95632.69;4969302;28;20195;-82
2023/06/29 04:30:17;;;;;;;4.65;2.63;;;;;;;26.95;33.87;95632.47;4966659;28;20189;-84
2023/06/29 04:32:43;;;;;;;4.90;2.10;;;;;;;27.17;34.04;95638.59;4967961;28;20200;-84
2023/06/29 04:35:09;;;;;;;4.97;2.33;;;;;;;26.97;34.16;95633.81;4952258;28;20212;-83
2023/06/29 04:37:41;;;;;;;5.82;2.60;;;;;;;26.48;34.76;95632.91;4946085;28;20217;-83
2023/06/29 04:40:09;;;;;;;3.78;2.63;;;;;;;28.15;32.57;95617.91;4955440;28;20288;-83
2023/06/29 04:42:43;;;;;;;5.45;2.95;;;;;;;28.48;31.31;95622.19;4968894;28;20178;-84
2023/06/29 04:45:12;;;;;;;5.20;2.75;;;;;;;28.51;31.76;95623.53;4971304;28;20204;-83
2023/06/29 04:47:40;;;;;;;6.88;2.70;;;;;;;29.31;30.06;95630.31;4955908;28;20183;-83
2023/06/29 04:50:09;;;;;;;5.05;2.70;;;;;;;28.78;30.59;95629.53;4948126;28;20185;-82
2023/06/29 04:52:36;;;;;;;4.22;2.67;;;;;;;29.18;30.21;95632.69;4957390;28;20183;-83
2023/06/29 04:55:06;;;;;;;4.65;2.78;;;;;;;28.53;30.62;95626.72;4971878;28;20212;-83
2023/06/29 04:57:31;;;;;;;6.45;3.00;;;;;;;29.74;29.03;95632.84;4941308;28;20228;-83
2023/06/29 04:59:56;;;;;;;3.90;2.47;;;;;;;30.03;29.15;95628.56;4959310;28;20233;-84
2023/06/29 05:02:22;;;;;;;6.80;2.55;;;;;;;29.94;29.00;95640.88;4953021;28;20200;-83
2023/06/29 05:04:48;;;;;;;5.10;2.70;;;;;;;29.53;28.89;95632.00;4947407;28;20306;-82
2023/06/29 05:07:14;;;;;;;2.95;2.40;;;;;;;29.87;28.40;95633.13;4964619;28;20196;-83
2023/06/29 05:09:39;;;;;;;3.53;2.45;;;;;;;29.62;29.12;95630.41;4959700;28;20181;-82
2023/06/29 05:12:06;;;;;;;5.95;2.58;;;;;;;29.95;28.37;95634.47;4954396;28;20188;-82
2023/06/29 05:14:31;;;;;;;5.35;2.47;;;;;;;29.50;28.83;95625.28;4954515;28;20303;-82
2023/06/29 05:16:57;;;;;;;4.40;2.83;;;;;;;29.89;28.28;95633.66;4964724;28;20290;-82
2023/06/29 05:19:22;;;;;;;5.28;2.83;;;;;;;29.20;29.42;95631.34;4968345;28;20181;-82
2023/06/29 05:21:47;;;;;;;4.65;2.63;;;;;;;29.04;29.82;95632.34;4962372;28;20212;-82
2023/06/29 05:24:13;;;;;;;3.97;2.53;;;;;;;29.59;28.63;95626.38;4966481;28;20287;-81
2023/06/29 05:26:38;;;;;;;5.63;2.70;;;;;;;29.18;29.49;95632.69;4963715;28;20188;-82
2023/06/29 05:29:04;;;;;;;5.38;2.40;;;;;;;30.72;27.44;95630.66;4967030;28;20224;-81
2023/06/29 05:31:29;;;;;;;5.43;2.38;;;;;;;31.56;26.47;95633.53;4996539;28;20196;-83
2023/06/29 05:33:54;;;;;;;3.53;2.75;;;;;;;31.52;26.63;95627.09;4963038;28;20185;-83
2023/06/29 05:36:20;;;;;;;2.97;2.25;;;;;;;32.01;25.86;95623.59;4981848;28;20204;-83
2023/06/29 05:38:45;;;;;;;4.05;2.22;;;;;;;33.48;24.02;95627.44;4985673;28;20200;-83
2023/06/29 05:41:10;;;;;;;4.15;2.47;;;;;;;32.96;23.95;95623.75;4956484;28;20295;-78
2023/06/29 05:43:36;;;;;;;9.32;2.53;;;;;;;31.93;25.47;95622.28;4948337;28;20191;-81
2023/06/29 05:46:01;;;;;;;3.83;2.17;;;;;;;31.31;26.79;95625.63;4947103;28;20239;-82
2023/06/29 05:48:27;;;;;;;3.28;2.33;;;;;;;32.86;24.52;95613.09;4966886;28;20188;-81
2023/06/29 05:50:52;;;;;;;3.17;2.25;;;;;;;34.21;22.50;95620.66;4949398;28;20217;-82
2023/06/29 05:53:17;;;;;;;4.70;2.38;;;;;;;31.76;24.94;95617.31;4960289;28;20209;-82
2023/06/29 05:55:42;;;;;;;7.30;2.53;;;;;;;32.66;23.57;95616.78;4967795;28;20223;-84
2023/06/29 05:58:08;;;;;;;3.63;2.28;;;;;;;34.71;21.53;95620.06;4970570;28;20196;-83
2023/06/29 06:00:33;;;;;;;4.38;2.13;;;;;;;33.44;22.61;95617.50;4968331;28;20256;-84
2023/06/29 06:02:58;;;;;;;4.78;2.08;;;;;;;35.23;21.18;95617.97;4966295;28;20188;-82
2023/06/29 06:05:24;;;;;;;3.88;2.33;;;;;;;34.07;22.26;95617.91;4963449;28;20211;-82
2023/06/29 06:07:49;;;;;;;3.45;2.30;;;;;;;35.90;20.42;95626.25;4966062;28;20188;-81
2023/06/29 06:10:14;;;;;;;5.82;2.40;;;;;;;35.84;19.62;95619.34;4940309;28;20196;-82
2023/06/29 06:12:40;;;;;;;3.70;2.55;;;;;;;35.26;20.29;95622.78;4974108;28;20190;-82
2023/06/29 06:15:07;;;;;;;3.90;2.40;;;;;;;34.73;21.19;95615.97;4973758;28;20281;-84
2023/06/29 06:17:32;;;;;;;3.75;2.38;;;;;;;34.00;22.48;95617.50;4962642;28;20177;-83
2023/06/29 06:19:58;;;;;;;3.33;1.98;;;;;;;36.08;19.34;95617.16;4945557;28;20215;-82
2023/06/29 06:22:23;;;;;;;2.10;1.85;;;;;;;36.80;18.87;95621.53;4958170;28;20188;-83
2023/06/29 06:24:48;;;;;;;3.25;1.80;;;;;;;35.53;19.89;95630.84;4965783;28;20205;-82
2023/06/29 06:27:14;;;;;;;5.30;2.30;;;;;;;32.63;22.63;95617.38;4971290;28;20822;-82
2023/06/29 06:29:39;;;;;;;3.50;2.40;;;;;;;31.62;24.15;95610.94;4951386;28;20236;-83
2023/06/29 06:32:04;;;;;;;6.68;2.05;;;;;;;32.51;23.31;95613.47;4967639;28;20578;-81
2023/06/29 06:34:30;;;;;;;4.75;2.30;;;;;;;32.12;24.20;95614.34;4947482;28;20442;-82
2023/06/29 06:36:57;;;;;;;3.75;2.42;;;;;;;33.42;23.03;95614.31;4963230;28;20190;-83
2023/06/29 06:39:22;;;;;;;5.90;2.03;;;;;;;33.69;22.06;95610.97;4966207;28;20184;-83
2023/06/29 06:41:47;;;;;;;4.32;2.08;;;;;;;32.82;23.10;95609.38;4947283;28;20235;-83
2023/06/29 06:44:13;;;;;;;3.85;1.90;;;;;;;34.96;21.12;95614.19;4955621;28;20219;-81
2023/06/29 06:46:38;;;;;;;3.50;2.28;;;;;;;35.27;20.11;95613.56;4962462;28;20219;-82
2023/06/29 06:49:04;;;;;;;3.15;2.10;;;;;;;35.03;19.91;95611.09;4960454;28;20239;-83
2023/06/29 06:51:29;;;;;;;2.22;2.03;;;;;;;33.72;21.33;95602.28;4962608;28;20180;-83
2023/06/29 06:53:55;;;;;;;3.88;1.90;;;;;;;34.15;21.46;95607.56;4967710;28;20326;-83
2023/06/29 06:56:22;;;;;;;2.65;2.00;;;;;;;35.17;20.97;95615.38;4965555;28;20188;-82
2023/06/29 06:58:47;;;;;;;3.10;2.08;;;;;;;34.98;19.91;95606.59;4949075;28;20188;-83
2023/06/29 07:01:13;;;;;;;3.15;2.42;;;;;;;33.59;22.45;95608.44;4956865;28;20193;-83
2023/06/29 07:03:39;;;;;;;4.15;2.40;;;;;;;32.69;24.08;95596.63;4950061;28;20235;-83
2023/06/29 07:06:04;;;;;;;3.53;2.28;;;;;;;30.85;26.31;95601.69;4945361;28;20239;-82
2023/06/29 07:08:32;;;;;;;2.83;2.22;;;;;;;29.95;27.83;95588.97;4955990;28;20276;-81
2023/06/29 07:10:57;;;;;;;3.25;2.47;;;;;;;29.78;28.17;95593.78;4955734;28;20894;-82
2023/06/29 07:13:24;;;;;;;3.50;2.60;;;;;;;29.42;28.68;95588.38;4969034;28;20192;-80
2023/06/29 07:15:49;;;;;;;3.72;2.42;;;;;;;28.93;30.26;95588.75;4969245;28;20228;-80
2023/06/29 07:18:14;;;;;;;4.20;2.60;;;;;;;27.70;32.27;95590.88;4971872;28;20189;-79
2023/06/29 07:20:40;;;;;;;4.35;2.53;;;;;;;28.24;31.87;95588.88;4979276;28;20216;-78
2023/06/29 07:23:05;;;;;;;2.53;2.28;;;;;;;29.49;30.34;95598.81;4962759;28;20189;-78
2023/06/29 07:25:30;;;;;;;3.53;2.10;;;;;;;30.18;28.84;95591.09;4974048;28;20212;-77
2023/06/29 07:27:56;;;;;;;5.85;2.80;;;;;;;29.89;29.27;95590.81;4976630;28;20203;-77
2023/06/29 07:30:21;;;;;;;3.30;2.55;;;;;;;29.48;29.57;95591.81;4987327;28;20173;-77
2023/06/29 07:32:46;;;;;;;3.72;2.33;;;;;;;29.42;29.84;95590.22;4980227;28;20279;-77
2023/06/29 07:35:12;;;;;;;2.58;2.10;;;;;;;30.10;28.27;95593.50;4983704;28;20200;-78
2023/06/29 07:37:37;;;;;;;4.10;2.20;;;;;;;30.21;27.86;95583.59;4985722;28;20173;-83
2023/06/29 07:40:04;;;;;;;4.85;2.40;;;;;;;29.57;28.34;95585.72;4996823;28;20216;-82
2023/06/29 07:42:29;;;;;;;2.88;2.33;;;;;;;29.26;29.26;95576.03;4990167;28;20176;-81
2023/06/29 07:44:54;;;;;;;3.13;2.53;;;;;;;28.56;30.99;95580.81;4993312;28;20240;-83
2023/06/29 07:47:20;;;;;;;4.43;2.33;;;;;;;29.39;28.72;95583.53;4995202;28;20470;-82
2023/06/29 07:49:45;;;;;;;7.10;2.88;;;;;;;29.04;30.02;95579.69;4960905;28;20201;-83
2023/06/29 07:52:10;;;;;;;9.40;2.70;;;;;;;28.05;31.86;95580.47;4973569;28;20547;-82
2023/06/29 07:54:36;;;;;;;2.63;2.28;;;;;;;28.22;31.02;95583.81;4963755;28;20200;-83
2023/06/29 07:57:01;;;;;;;3.85;2.63;;;;;;;28.18;31.60;95581.88;4949439;28;20189;-83
2023/06/29 07:59:26;;;;;;;4.40;2.20;;;;;;;29.04;29.47;95584.25;4961528;28;20188;-83
2023/06/29 08:01:53;;;;;;;3.78;2.13;;;;;;;29.50;27.83;95581.69;4941077;28;20217;-83
2023/06/29 08:04:18;;;;;;;4.28;2.13;;;;;;;28.66;27.81;95578.19;4960833;28;20267;-82
2023/06/29 08:06:43;;;;;;;4.47;1.90;;;;;;;27.92;29.76;95573.72;4974031;28;20192;-82
2023/06/29 08:09:10;;;;;;;4.55;1.95;;;;;;;27.74;30.11;95574.13;4937209;28;20250;-82
2023/06/29 08:11:36;;;;;;;6.32;2.13;;;;;;;28.13;29.63;95576.53;4972487;28;20205;-82
2023/06/29 08:14:01;;;;;;;6.28;2.15;;;;;;;28.94;28.32;95581.53;4970008;28;20849;-82
2023/06/29 08:16:27;;;;;;;4.22;2.13;;;;;;;28.50;29.86;95574.66;4959915;28;20193;-82
2023/06/29 08:18:52;;;;;;;2.22;1.98;;;;;;;29.51;27.16;95575.28;4968753;28;20206;-82
2023/06/29 08:21:17;;;;;;;5.07;2.20;;;;;;;29.56;27.14;95577.97;4965566;28;20223;-83
2023/06/29 08:23:43;;;;;;;2.80;2.05;;;;;;;30.00;26.61;95582.78;4944977;28;20542;-82
2023/06/29 08:26:08;;;;;;;5.32;1.75;;;;;;;29.77;27.02;95582.28;4969553;28;20189;-82
2023/06/29 08:28:33;;;;;;;2.95;1.73;;;;;;;29.44;27.03;95572.84;4963062;28;20284;-82
2023/06/29 08:30:59;;;;;;;6.85;2.38;;;;;;;28.75;28.41;95570.50;4970248;28;20280;-82
2023/06/29 08:33:24;;;;;;;4.00;1.73;;;;;;;29.03;27.35;95572.75;4964241;28;20185;-82
2023/06/29 08:35:51;;;;;;;2.85;2.00;;;;;;;29.53;27.45;95565.94;4968258;28;20223;-82
2023/06/29 08:38:16;;;;;;;4.10;2.00;;;;;;;29.24;26.92;95568.28;4960754;28;20189;-81
2023/06/29 08:40:45;;;;;;;2.20;1.77;;;;;;;29.00;28.24;95570.59;4963871;28;20243;-80
2023/06/29 08:43:11;;;;;;;3.97;2.22;;;;;;;28.20;29.59;95569.13;4954051;28;20219;-82
2023/06/29 08:45:37;;;;;;;3.35;2.15;;;;;;;28.97;27.61;95567.63;4980039;28;20262;-81
2023/06/29 08:48:02;;;;;;;4.20;2.03;;;;;;;28.74;28.20;95558.19;4972926;28;20783;-82
2023/06/29 08:50:30;;;;;;;4.43;2.08;;;;;;;28.49;28.71;95565.03;4972581;28;20180;-82
2023/06/29 08:52:56;;;;;;;4.82;1.85;;;;;;;28.99;28.00;95571.69;4974303;28;20201;-82
2023/06/29 08:55:22;;;;;;;3.28;2.10;;;;;;;29.07;27.93;95565.03;4972310;28;20729;-80
2023/06/29 08:57:48;;;;;;;6.60;2.10;;;;;;;29.08;28.74;95560.47;4980175;28;20186;-81
2023/06/29 09:00:14;;;;;;;4.20;2.05;;;;;;;29.23;27.27;95563.97;4959421;28;20605;-82
2023/06/29 09:02:39;;;;;;;5.15;2.30;;;;;;;28.78;28.31;95556.59;4957266;28;20441;-82
2023/06/29 09:05:05;;;;;;;3.20;2.00;;;;;;;29.29;28.07;95559.44;4962698;28;20217;-80
2023/06/29 09:07:31;;;;;;;2.95;2.25;;;;;;;29.23;28.33;95550.59;4957872;28;20196;-81
2023/06/29 09:09:57;;;;;;;4.82;2.17;;;;;;;28.93;29.59;95553.22;4969054;28;20280;-82
2023/06/29 09:12:22;;;;;;;5.68;2.60;;;;;;;28.83;29.91;95561.16;4969514;28;20275;-82
2023/06/29 09:14:47;;;;;;;3.58;2.58;;;;;;;28.97;28.73;95551.59;4966475;28;20217;-82
2023/06/29 09:17:14;;;;;;;6.38;2.20;;;;;;;28.56;29.09;95555.97;4968895;28;20228;-82
2023/06/29 09:19:44;;;;;;;7.40;2.45;;;;;;;28.99;28.86;95552.16;4944761;28;20173;-82
2023/06/29 09:22:09;;;;;;;4.35;2.33;;;;;;;28.70;29.05;95557.09;4962078;28;20212;-82
2023/06/29 09:24:35;;;;;;;3.08;2.10;;;;;;;29.58;27.64;95551.72;4977073;28;20269;-82
2023/06/29 09:27:01;;;;;;;3.15;2.10;;;;;;;29.53;29.05;95549.88;4936383;28;20692;-81
2023/06/29 09:29:27;;;;;;;3.20;2.22;;;;;;;29.75;27.69;95556.81;4951936;28;20179;-82
2023/06/29 09:32:02;;;;;;;3.20;2.00;;;;;;;29.93;27.86;95553.59;4957003;28;20593;-83
2023/06/29 09:34:28;;;;;;;2.38;1.98;;;;;;;30.63;28.08;95551.06;4962116;28;20216;-83
2023/06/29 09:36:54;;;;;;;7.80;2.67;;;;;;;31.14;28.73;95548.97;4942883;28;20181;-82
2023/06/29 09:39:21;;;;;;;3.60;1.90;;;;;;;31.58;27.44;95551.66;4951308;28;20932;-77
2023/06/29 09:41:51;;;;;;;3.58;2.00;;;;;;;31.43;26.97;95546.38;4970461;28;20221;-83
2023/06/29 09:44:19;;;;;;;6.00;2.42;;;;;;;30.70;27.07;95547.03;4943461;28;20209;-83
2023/06/29 09:46:47;;;;;;;4.20;2.38;;;;;;;30.94;26.79;95552.56;4960868;28;20180;-82
2023/06/29 09:49:13;;;;;;;5.00;2.25;;;;;;;30.80;27.35;95551.56;4966270;28;20601;-82
2023/06/29 09:51:39;;;;;;;2.55;2.08;;;;;;;30.15;28.29;95546.13;4954896;28;20192;-82
2023/06/29 09:54:04;;;;;;;2.60;2.17;;;;;;;30.25;28.15;95557.88;4956055;28;20408;-82
2023/06/29 09:56:33;;;;;;;3.35;2.75;;;;;;;30.87;26.25;95548.59;4940002;28;20225;-83
2023/06/29 09:59:01;;;;;;;4.50;3.13;;;;;;;30.14;28.61;95547.19;4967442;28;20176;-83
2023/06/29 10:01:28;;;;;;;3.25;2.78;;;;;;;29.74;28.80;95539.97;4967780;28;20219;-82
2023/06/29 10:03:54;;;;;;;4.53;2.58;;;;;;;28.14;31.11;95536.22;4967129;28;20236;-83
2023/06/29 10:06:21;;;;;;;4.20;2.40;;;;;;;29.52;30.52;95542.13;4967084;28;20975;-82
2023/06/29 10:08:50;;;;;;;3.58;2.63;;;;;;;29.90;30.12;95540.75;4949164;28;20249;-83
2023/06/29 10:11:16;;;;;;;4.82;2.50;;;;;;;30.28;29.07;95539.38;4948816;28;20188;-82
2023/06/29 10:13:46;;;;;;;6.10;2.90;;;;;;;30.41;27.99;95536.13;4965381;28;20180;-83
2023/06/29 10:16:12;;;;;;;2.90;2.47;;;;;;;29.67;30.28;95535.94;4947712;28;20199;-82
2023/06/29 10:18:41;;;;;;;3.95;2.88;;;;;;;30.17;28.59;95538.59;4969543;28;20186;-82
2023/06/29 10:21:06;;;;;;;2.80;2.38;;;;;;;30.09;28.53;95538.34;4955255;28;20204;-80
2023/06/29 10:23:33;;;;;;;4.93;2.45;;;;;;;29.78;28.66;95540.25;4962327;28;20246;-83
2023/06/29 10:26:00;;;;;;;4.97;2.20;;;;;;;30.06;29.58;95530.84;4949836;28;20212;-81
2023/06/29 10:28:25;;;;;;;7.57;2.30;;;;;;;30.72;27.37;95536.84;4963022;28;20184;-80
2023/06/29 10:30:57;;;;;;;5.20;2.42;;;;;;;30.38;27.51;95536.66;4971459;28;20199;-81
2023/06/29 10:33:23;;;;;;;5.95;2.70;;;;;;;30.58;28.46;95535.81;4959907;28;20192;-81
2023/06/29 10:35:58;;;;;;;5.10;2.50;;;;;;;30.95;27.23;95534.59;4961892;28;20209;-82
2023/06/29 10:38:33;;;;;;;4.93;2.70;;;;;;;30.75;27.03;95538.19;4977610;28;20608;-82
2023/06/29 10:40:59;;;;;;;4.25;2.67;;;;;;;30.57;27.48;95531.53;4961269;28;20224;-82
2023/06/29 10:43:26;;;;;;;5.47;3.00;;;;;;;30.68;27.77;95525.09;4947809;28;20226;-82
2023/06/29 10:45:51;;;;;;;6.03;2.75;;;;;;;30.62;27.55;95528.00;4964345;28;20272;-82
2023/06/29 10:48:17;;;;;;;3.67;2.80;;;;;;;31.00;27.36;95523.84;4946366;28;20227;-82
2023/06/29 10:50:44;;;;;;;5.18;2.85;;;;;;;30.44;27.45;95527.53;4973923;28;20207;-81
2023/06/29 10:53:14;;;;;;;4.38;2.55;;;;;;;29.64;29.61;95521.25;4968664;28;20188;-82
2023/06/29 10:55:49;;;;;;;3.33;2.75;;;;;;;30.37;27.74;95520.88;4932170;28;20312;-82
2023/06/29 10:58:19;;;;;;;4.45;2.80;;;;;;;30.29;27.63;95519.56;4951582;28;20195;-82
2023/06/29 11:00:45;;;;;;;3.88;2.30;;;;;;;30.18;28.25;95521.47;4946849;28;20205;-82
2023/06/29 11:03:12;;;;;;;4.55;2.88;;;;;;;29.64;28.66;95518.56;4952736;28;20219;-82
2023/06/29 11:05:37;;;;;;;4.68;2.83;;;;;;;29.70;28.37;95520.19;4942350;28;20201;-82
2023/06/29 11:08:05;;;;;;;3.85;3.00;;;;;;;29.34;30.41;95512.13;4956204;28;20190;-83
2023/06/29 11:10:30;;;;;;;3.47;2.83;;;;;;;29.12;29.63;95513.41;4971054;28;20208;-81
2023/06/29 11:12:55;;;;;;;3.83;2.95;;;;;;;29.46;29.69;95511.84;4968209;28;20177;-80
2023/06/29 11:15:22;;;;;;;5.28;3.08;;;;;;;28.94;30.53;95512.84;4981321;28;20224;-81
2023/06/29 11:17:51;;;;;;;16.38;3.80;;;;;;;28.55;33.12;95517.78;4994120;28;20200;-81
2023/06/29 11:20:18;;;;;;;10.18;3.85;;;;;;;28.25;35.14;95518.41;4976042;28;20228;-83
2023/06/29 11:22:45;;;;;;;4.75;2.80;;;;;;;27.68;38.17;95520.97;4981366;28;20169;-82
2023/06/29 11:25:12;;;;;;;6.72;3.22;;;;;;;27.23;38.32;95520.31;4953771;28;20240;-83
2023/06/29 11:27:37;;;;;;;4.05;3.28;;;;;;;26.77;40.33;95519.81;4945353;28;20655;-82
2023/06/29 11:30:09;;;;;;;8.15;3.13;;;;;;;26.42;40.77;95525.53;4969981;28;20276;-82